sensor_id;sensor_type;location;lat;lon;timestamp;temperature;humidity
3614;DHT22;1821;50.936;6.854;2022-08-27T00:00:14;19.90;99.90
3614;DHT22;1821;50.936;6.854;2022-08-27T00:01:38;19.70;99.90
3614;DHT22;1821;50.936;6.854;2022-08-27T00:03:02;19.60;99.90
3614;DHT22;1821;50.936;6.854;2022-08-27T00:03:45;19.70;99.90
3614;DHT22;1821;50.936;6.854;2022-08-27T00:04:27;19.60;99.90
3614;DHT22;1821;50.936;6.854;2022-08-27T00:05:10;19.70;99.90
3614;DHT22;1821;50.936;6.854;2022-08-27T00:07:18;19.50;99.90
3614;DHT22;1821;50.936;6.854;2022-08-27T00:08:00;19.70;99.90
3614;DHT22;1821;50.936;6.854;2022-08-27T00:09:27;19.70;99.90
3614;DHT22;1821;50.936;6.854;2022-08-27T00:11:34;19.70;99.90
3614;DHT22;1821;50.936;6.854;2022-08-27T00:12:16;19.50;99.90
3614;DHT22;1821;50.936;6.854;2022-08-27T00:12:59;19.60;99.90
3614;DHT22;1821;50.936;6.854;2022-08-27T00:13:41;19.60;99.90
3614;DHT22;1821;50.936;6.854;2022-08-27T00:15:08;19.70;99.90
3614;DHT22;1821;50.936;6.854;2022-08-27T00:17:15;19.70;99.90
3614;DHT22;1821;50.936;6.854;2022-08-27T00:17:57;19.70;99.90
3614;DHT22;1821;50.936;6.854;2022-08-27T00:18:40;19.50;99.90
3614;DHT22;1821;50.936;6.854;2022-08-27T00:19:22;19.60;99.90
3614;DHT22;1821;50.936;6.854;2022-08-27T00:20:48;19.40;99.90
3614;DHT22;1821;50.936;6.854;2022-08-27T00:21:31;19.50;99.90
3614;DHT22;1821;50.936;6.854;2022-08-27T00:22:55;19.80;99.90
3614;DHT22;1821;50.936;6.854;2022-08-27T00:23:37;19.80;99.90
3614;DHT22;1821;50.936;6.854;2022-08-27T00:24:19;19.50;99.90
3614;DHT22;1821;50.936;6.854;2022-08-27T00:25:01;19.40;99.90
3614;DHT22;1821;50.936;6.854;2022-08-27T00:25:43;19.60;99.90
3614;DHT22;1821;50.936;6.854;2022-08-27T00:28:33;19.50;99.90
3614;DHT22;1821;50.936;6.854;2022-08-27T00:29:15;19.70;99.90
3614;DHT22;1821;50.936;6.854;2022-08-27T00:29:57;19.60;99.90
3614;DHT22;1821;50.936;6.854;2022-08-27T00:30:39;19.50;99.90
3614;DHT22;1821;50.936;6.854;2022-08-27T00:31:21;19.70;99.90
3614;DHT22;1821;50.936;6.854;2022-08-27T00:32:08;19.80;99.90
3614;DHT22;1821;50.936;6.854;2022-08-27T00:32:50;19.50;99.90
3614;DHT22;1821;50.936;6.854;2022-08-27T00:33:32;19.60;99.90
3614;DHT22;1821;50.936;6.854;2022-08-27T00:34:14;19.60;99.90
3614;DHT22;1821;50.936;6.854;2022-08-27T00:34:55;19.50;99.90
3614;DHT22;1821;50.936;6.854;2022-08-27T00:35:37;19.40;99.90
3614;DHT22;1821;50.936;6.854;2022-08-27T00:36:19;19.40;99.90
3614;DHT22;1821;50.936;6.854;2022-08-27T00:37:01;19.50;99.90
3614;DHT22;1821;50.936;6.854;2022-08-27T00:37:44;19.30;99.90
3614;DHT22;1821;50.936;6.854;2022-08-27T00:38:26;19.50;99.90
3614;DHT22;1821;50.936;6.854;2022-08-27T00:39:08;19.30;99.90
3614;DHT22;1821;50.936;6.854;2022-08-27T00:39:50;19.40;99.90
3614;DHT22;1821;50.936;6.854;2022-08-27T00:40:32;19.40;99.90
3614;DHT22;1821;50.936;6.854;2022-08-27T00:41:58;19.30;99.90
3614;DHT22;1821;50.936;6.854;2022-08-27T00:43:29;19.50;99.90
3614;DHT22;1821;50.936;6.854;2022-08-27T00:44:12;19.40;99.90
3614;DHT22;1821;50.936;6.854;2022-08-27T00:44:54;19.40;99.90
3614;DHT22;1821;50.936;6.854;2022-08-27T00:45:40;19.40;99.90
3614;DHT22;1821;50.936;6.854;2022-08-27T00:47:11;19.10;99.90
3614;DHT22;1821;50.936;6.854;2022-08-27T00:51:41;19.40;99.90
3614;DHT22;1821;50.936;6.854;2022-08-27T00:53:17;19.60;99.90
3614;DHT22;1821;50.936;6.854;2022-08-27T00:53:59;19.50;99.90
3614;DHT22;1821;50.936;6.854;2022-08-27T00:54:41;19.30;99.90
3614;DHT22;1821;50.936;6.854;2022-08-27T00:55:36;19.60;99.90
3614;DHT22;1821;50.936;6.854;2022-08-27T00:56:26;19.20;99.90
3614;DHT22;1821;50.936;6.854;2022-08-27T00:57:08;19.20;99.90
3614;DHT22;1821;50.936;6.854;2022-08-27T00:58:02;19.20;99.90
3614;DHT22;1821;50.936;6.854;2022-08-27T01:00:57;19.50;99.90
3614;DHT22;1821;50.936;6.854;2022-08-27T01:01:41;19.20;99.90
3614;DHT22;1821;50.936;6.854;2022-08-27T01:03:24;19.40;99.90
3614;DHT22;1821;50.936;6.854;2022-08-27T01:04:06;19.40;99.90
3614;DHT22;1821;50.936;6.854;2022-08-27T01:04:57;19.40;99.90
3614;DHT22;1821;50.936;6.854;2022-08-27T01:05:40;19.30;99.90
3614;DHT22;1821;50.936;6.854;2022-08-27T01:06:27;19.20;99.90
3614;DHT22;1821;50.936;6.854;2022-08-27T01:07:12;19.20;99.90
3614;DHT22;1821;50.936;6.854;2022-08-27T01:07:58;19.00;99.90
3614;DHT22;1821;50.936;6.854;2022-08-27T01:09:32;19.20;99.90
3614;DHT22;1821;50.936;6.854;2022-08-27T01:10:17;19.20;99.90
3614;DHT22;1821;50.936;6.854;2022-08-27T01:11:00;19.30;99.90
3614;DHT22;1821;50.936;6.854;2022-08-27T01:11:45;19.20;99.90
3614;DHT22;1821;50.936;6.854;2022-08-27T01:12:30;19.60;99.90
3614;DHT22;1821;50.936;6.854;2022-08-27T01:13:17;19.30;99.90
3614;DHT22;1821;50.936;6.854;2022-08-27T01:14:01;19.50;99.90
3614;DHT22;1821;50.936;6.854;2022-08-27T01:14:45;19.30;99.90
3614;DHT22;1821;50.936;6.854;2022-08-27T01:15:28;19.40;99.90
3614;DHT22;1821;50.936;6.854;2022-08-27T01:16:10;19.30;99.90
3614;DHT22;1821;50.936;6.854;2022-08-27T01:16:57;19.30;99.90
3614;DHT22;1821;50.936;6.854;2022-08-27T01:17:42;19.50;99.90
3614;DHT22;1821;50.936;6.854;2022-08-27T01:18:26;19.50;99.90
3614;DHT22;1821;50.936;6.854;2022-08-27T01:19:23;19.40;99.90
3614;DHT22;1821;50.936;6.854;2022-08-27T01:20:13;19.40;99.90
3614;DHT22;1821;50.936;6.854;2022-08-27T01:21:01;19.40;99.90
3614;DHT22;1821;50.936;6.854;2022-08-27T01:24:56;19.10;99.90
3614;DHT22;1821;50.936;6.854;2022-08-27T01:25:41;19.20;99.90
3614;DHT22;1821;50.936;6.854;2022-08-27T01:26:24;19.00;99.90
3614;DHT22;1821;50.936;6.854;2022-08-27T01:27:07;19.10;99.90
3614;DHT22;1821;50.936;6.854;2022-08-27T01:27:56;19.20;99.90
3614;DHT22;1821;50.936;6.854;2022-08-27T01:29:23;19.20;99.90
3614;DHT22;1821;50.936;6.854;2022-08-27T01:30:07;19.20;99.90
3614;DHT22;1821;50.936;6.854;2022-08-27T01:30:48;19.10;99.90
3614;DHT22;1821;50.936;6.854;2022-08-27T01:32:16;19.20;99.90
3614;DHT22;1821;50.936;6.854;2022-08-27T01:33:56;19.20;99.90
3614;DHT22;1821;50.936;6.854;2022-08-27T01:34:38;19.10;99.90
3614;DHT22;1821;50.936;6.854;2022-08-27T01:35:21;19.10;99.90
3614;DHT22;1821;50.936;6.854;2022-08-27T01:36:46;19.00;99.90
3614;DHT22;1821;50.936;6.854;2022-08-27T01:37:28;19.20;99.90
3614;DHT22;1821;50.936;6.854;2022-08-27T01:38:11;19.20;99.90
3614;DHT22;1821;50.936;6.854;2022-08-27T01:39:11;19.20;99.90
3614;DHT22;1821;50.936;6.854;2022-08-27T01:39:55;19.30;99.90
3614;DHT22;1821;50.936;6.854;2022-08-27T01:40:39;19.10;99.90
3614;DHT22;1821;50.936;6.854;2022-08-27T01:41:22;19.10;99.90
3614;DHT22;1821;50.936;6.854;2022-08-27T01:44:18;19.20;99.90
3614;DHT22;1821;50.936;6.854;2022-08-27T01:45:19;19.00;99.90
3614;DHT22;1821;50.936;6.854;2022-08-27T01:46:00;19.10;99.90
3614;DHT22;1821;50.936;6.854;2022-08-27T01:46:42;19.00;99.90
3614;DHT22;1821;50.936;6.854;2022-08-27T01:47:26;19.00;99.90
3614;DHT22;1821;50.936;6.854;2022-08-27T01:48:11;18.90;99.90
3614;DHT22;1821;50.936;6.854;2022-08-27T01:48:53;19.00;99.90
3614;DHT22;1821;50.936;6.854;2022-08-27T01:49:35;19.00;99.90
3614;DHT22;1821;50.936;6.854;2022-08-27T01:50:21;19.30;99.90
3614;DHT22;1821;50.936;6.854;2022-08-27T01:51:03;19.10;99.90
3614;DHT22;1821;50.936;6.854;2022-08-27T01:51:45;18.80;99.90
3614;DHT22;1821;50.936;6.854;2022-08-27T01:53:19;18.90;99.90
3614;DHT22;1821;50.936;6.854;2022-08-27T01:54:02;18.90;99.90
3614;DHT22;1821;50.936;6.854;2022-08-27T01:54:44;18.90;99.90
3614;DHT22;1821;50.936;6.854;2022-08-27T01:55:26;18.60;99.90
3614;DHT22;1821;50.936;6.854;2022-08-27T01:56:08;18.80;99.90
3614;DHT22;1821;50.936;6.854;2022-08-27T01:57:34;18.90;99.90
3614;DHT22;1821;50.936;6.854;2022-08-27T01:58:17;18.60;99.90
3614;DHT22;1821;50.936;6.854;2022-08-27T04:31:14;18.50;99.90
3614;DHT22;1821;50.936;6.854;2022-08-27T04:31:57;18.50;99.90
3614;DHT22;1821;50.936;6.854;2022-08-27T04:32:39;18.60;99.90
3614;DHT22;1821;50.936;6.854;2022-08-27T04:33:21;18.60;99.90
3614;DHT22;1821;50.936;6.854;2022-08-27T04:34:03;18.70;99.90
3614;DHT22;1821;50.936;6.854;2022-08-27T04:34:48;18.60;99.90
3614;DHT22;1821;50.936;6.854;2022-08-27T04:35:29;18.80;99.90
3614;DHT22;1821;50.936;6.854;2022-08-27T04:36:11;19.10;99.90
3614;DHT22;1821;50.936;6.854;2022-08-27T04:36:54;18.80;99.90
3614;DHT22;1821;50.936;6.854;2022-08-27T04:37:37;18.50;99.90
3614;DHT22;1821;50.936;6.854;2022-08-27T04:38:20;18.60;99.90
3614;DHT22;1821;50.936;6.854;2022-08-27T04:39:02;18.70;99.90
3614;DHT22;1821;50.936;6.854;2022-08-27T04:39:44;18.80;99.90
3614;DHT22;1821;50.936;6.854;2022-08-27T04:40:31;18.60;99.90
3614;DHT22;1821;50.936;6.854;2022-08-27T04:41:33;18.80;99.90
3614;DHT22;1821;50.936;6.854;2022-08-27T04:42:16;18.70;99.90
3614;DHT22;1821;50.936;6.854;2022-08-27T04:42:58;18.70;99.90
3614;DHT22;1821;50.936;6.854;2022-08-27T04:43:40;18.70;99.90
3614;DHT22;1821;50.936;6.854;2022-08-27T04:44:24;18.70;99.90
3614;DHT22;1821;50.936;6.854;2022-08-27T04:45:07;18.70;99.90
3614;DHT22;1821;50.936;6.854;2022-08-27T04:45:49;18.70;99.90
3614;DHT22;1821;50.936;6.854;2022-08-27T04:46:34;18.80;99.90
3614;DHT22;1821;50.936;6.854;2022-08-27T04:47:16;18.70;99.90
3614;DHT22;1821;50.936;6.854;2022-08-27T04:47:58;18.70;99.90
3614;DHT22;1821;50.936;6.854;2022-08-27T04:48:40;18.60;99.90
3614;DHT22;1821;50.936;6.854;2022-08-27T04:49:23;18.50;99.90
3614;DHT22;1821;50.936;6.854;2022-08-27T04:50:05;18.50;99.90
3614;DHT22;1821;50.936;6.854;2022-08-27T04:50:48;18.70;99.90
3614;DHT22;1821;50.936;6.854;2022-08-27T04:51:30;18.50;99.90
3614;DHT22;1821;50.936;6.854;2022-08-27T04:52:13;18.50;99.90
3614;DHT22;1821;50.936;6.854;2022-08-27T04:52:57;18.30;99.90
3614;DHT22;1821;50.936;6.854;2022-08-27T04:53:39;18.60;99.90
3614;DHT22;1821;50.936;6.854;2022-08-27T04:54:21;18.50;99.90
3614;DHT22;1821;50.936;6.854;2022-08-27T04:55:13;18.70;99.90
3614;DHT22;1821;50.936;6.854;2022-08-27T04:55:56;18.70;99.90
3614;DHT22;1821;50.936;6.854;2022-08-27T04:56:38;18.70;99.90
3614;DHT22;1821;50.936;6.854;2022-08-27T04:57:20;18.80;99.90
3614;DHT22;1821;50.936;6.854;2022-08-27T04:58:01;18.50;99.90
3614;DHT22;1821;50.936;6.854;2022-08-27T04:58:43;18.60;99.90
3614;DHT22;1821;50.936;6.854;2022-08-27T04:59:25;18.50;99.90
3614;DHT22;1821;50.936;6.854;2022-08-27T05:00:07;18.60;99.90
3614;DHT22;1821;50.936;6.854;2022-08-27T05:00:52;18.50;99.90
3614;DHT22;1821;50.936;6.854;2022-08-27T05:01:36;18.60;99.90
3614;DHT22;1821;50.936;6.854;2022-08-27T05:02:18;18.60;99.90
3614;DHT22;1821;50.936;6.854;2022-08-27T05:03:00;18.60;99.90
3614;DHT22;1821;50.936;6.854;2022-08-27T05:03:42;18.60;99.90
3614;DHT22;1821;50.936;6.854;2022-08-27T05:04:24;18.50;99.90
3614;DHT22;1821;50.936;6.854;2022-08-27T05:05:07;18.40;99.90
3614;DHT22;1821;50.936;6.854;2022-08-27T05:06:03;18.40;99.90
3614;DHT22;1821;50.936;6.854;2022-08-27T05:06:46;18.40;99.90
3614;DHT22;1821;50.936;6.854;2022-08-27T05:07:29;18.40;99.90
3614;DHT22;1821;50.936;6.854;2022-08-27T05:08:11;18.30;99.90
3614;DHT22;1821;50.936;6.854;2022-08-27T05:08:53;18.60;99.90
3614;DHT22;1821;50.936;6.854;2022-08-27T05:09:35;18.50;99.90
3614;DHT22;1821;50.936;6.854;2022-08-27T05:10:17;18.40;99.90
3614;DHT22;1821;50.936;6.854;2022-08-27T05:10:59;18.80;99.90
3614;DHT22;1821;50.936;6.854;2022-08-27T05:11:42;18.50;99.90
3614;DHT22;1821;50.936;6.854;2022-08-27T05:12:27;18.60;99.90
3614;DHT22;1821;50.936;6.854;2022-08-27T05:13:10;18.50;99.90
3614;DHT22;1821;50.936;6.854;2022-08-27T05:13:52;18.60;99.90
3614;DHT22;1821;50.936;6.854;2022-08-27T05:14:34;18.50;99.90
3614;DHT22;1821;50.936;6.854;2022-08-27T05:15:16;18.50;99.90
3614;DHT22;1821;50.936;6.854;2022-08-27T05:16:00;18.50;99.90
3614;DHT22;1821;50.936;6.854;2022-08-27T05:16:42;18.50;99.90
3614;DHT22;1821;50.936;6.854;2022-08-27T05:17:25;18.60;99.90
3614;DHT22;1821;50.936;6.854;2022-08-27T05:18:07;18.60;99.90
3614;DHT22;1821;50.936;6.854;2022-08-27T05:18:51;18.60;99.90
3614;DHT22;1821;50.936;6.854;2022-08-27T05:19:32;18.60;99.90
3614;DHT22;1821;50.936;6.854;2022-08-27T05:20:14;18.40;99.90
3614;DHT22;1821;50.936;6.854;2022-08-27T05:20:56;18.50;99.90
3614;DHT22;1821;50.936;6.854;2022-08-27T05:21:42;18.50;99.90
3614;DHT22;1821;50.936;6.854;2022-08-27T05:22:25;18.60;99.90
3614;DHT22;1821;50.936;6.854;2022-08-27T05:23:08;18.50;99.90
3614;DHT22;1821;50.936;6.854;2022-08-27T05:23:51;18.50;99.90
3614;DHT22;1821;50.936;6.854;2022-08-27T05:24:34;18.50;99.90
3614;DHT22;1821;50.936;6.854;2022-08-27T05:25:16;18.60;99.90
3614;DHT22;1821;50.936;6.854;2022-08-27T05:25:58;18.40;99.90
3614;DHT22;1821;50.936;6.854;2022-08-27T05:26:40;18.60;99.90
3614;DHT22;1821;50.936;6.854;2022-08-27T05:27:22;18.50;99.90
3614;DHT22;1821;50.936;6.854;2022-08-27T05:28:04;18.70;99.90
3614;DHT22;1821;50.936;6.854;2022-08-27T05:28:46;18.70;99.90
3614;DHT22;1821;50.936;6.854;2022-08-27T05:29:28;18.50;99.90
3614;DHT22;1821;50.936;6.854;2022-08-27T05:30:10;18.50;99.90
3614;DHT22;1821;50.936;6.854;2022-08-27T05:31:01;18.50;99.90
3614;DHT22;1821;50.936;6.854;2022-08-27T05:31:43;18.70;99.90
3614;DHT22;1821;50.936;6.854;2022-08-27T05:32:25;18.60;99.90
3614;DHT22;1821;50.936;6.854;2022-08-27T05:33:07;18.40;99.90
3614;DHT22;1821;50.936;6.854;2022-08-27T05:33:49;18.60;99.90
3614;DHT22;1821;50.936;6.854;2022-08-27T05:34:31;18.60;99.90
3614;DHT22;1821;50.936;6.854;2022-08-27T05:35:13;18.50;99.90
3614;DHT22;1821;50.936;6.854;2022-08-27T05:35:57;18.50;99.90
3614;DHT22;1821;50.936;6.854;2022-08-27T05:36:39;18.40;99.90
3614;DHT22;1821;50.936;6.854;2022-08-27T05:37:29;18.40;99.90
3614;DHT22;1821;50.936;6.854;2022-08-27T05:38:15;18.80;99.90
3614;DHT22;1821;50.936;6.854;2022-08-27T05:38:59;18.50;99.90
3614;DHT22;1821;50.936;6.854;2022-08-27T05:39:42;18.60;99.90
3614;DHT22;1821;50.936;6.854;2022-08-27T05:40:24;18.50;99.90
3614;DHT22;1821;50.936;6.854;2022-08-27T05:41:07;18.60;99.90
3614;DHT22;1821;50.936;6.854;2022-08-27T05:41:49;18.70;99.90
3614;DHT22;1821;50.936;6.854;2022-08-27T05:42:33;18.70;99.90
3614;DHT22;1821;50.936;6.854;2022-08-27T05:43:16;18.60;99.90
3614;DHT22;1821;50.936;6.854;2022-08-27T05:44:00;18.50;99.90
3614;DHT22;1821;50.936;6.854;2022-08-27T05:44:59;18.70;99.90
3614;DHT22;1821;50.936;6.854;2022-08-27T05:45:46;18.70;99.90
3614;DHT22;1821;50.936;6.854;2022-08-27T05:46:29;18.60;99.90
3614;DHT22;1821;50.936;6.854;2022-08-27T05:47:11;18.60;99.90
3614;DHT22;1821;50.936;6.854;2022-08-27T05:47:52;18.60;99.90
3614;DHT22;1821;50.936;6.854;2022-08-27T05:48:35;18.60;99.90
3614;DHT22;1821;50.936;6.854;2022-08-27T05:49:17;18.50;99.90
3614;DHT22;1821;50.936;6.854;2022-08-27T05:49:58;18.60;99.90
3614;DHT22;1821;50.936;6.854;2022-08-27T05:50:41;18.60;99.90
3614;DHT22;1821;50.936;6.854;2022-08-27T05:51:30;18.40;99.90
3614;DHT22;1821;50.936;6.854;2022-08-27T05:52:12;18.30;99.90
3614;DHT22;1821;50.936;6.854;2022-08-27T05:52:53;18.40;99.90
3614;DHT22;1821;50.936;6.854;2022-08-27T05:53:35;18.30;99.90
3614;DHT22;1821;50.936;6.854;2022-08-27T05:54:17;18.40;99.90
3614;DHT22;1821;50.936;6.854;2022-08-27T05:55:00;18.50;99.90
3614;DHT22;1821;50.936;6.854;2022-08-27T05:55:43;18.30;99.90
3614;DHT22;1821;50.936;6.854;2022-08-27T05:56:27;18.30;99.90
3614;DHT22;1821;50.936;6.854;2022-08-27T05:57:10;18.20;99.90
3614;DHT22;1821;50.936;6.854;2022-08-27T05:57:52;18.40;99.90
3614;DHT22;1821;50.936;6.854;2022-08-27T05:58:33;18.20;99.90
3614;DHT22;1821;50.936;6.854;2022-08-27T05:59:34;18.40;99.90
3614;DHT22;1821;50.936;6.854;2022-08-27T06:00:37;18.20;99.90
3614;DHT22;1821;50.936;6.854;2022-08-27T06:01:48;18.20;99.90
3614;DHT22;1821;50.936;6.854;2022-08-27T06:02:30;18.20;99.90
3614;DHT22;1821;50.936;6.854;2022-08-27T06:03:12;18.40;99.90
3614;DHT22;1821;50.936;6.854;2022-08-27T06:03:54;18.40;99.90
3614;DHT22;1821;50.936;6.854;2022-08-27T06:04:36;18.40;99.90
3614;DHT22;1821;50.936;6.854;2022-08-27T06:05:18;18.40;99.90
3614;DHT22;1821;50.936;6.854;2022-08-27T06:06:06;18.40;99.90
3614;DHT22;1821;50.936;6.854;2022-08-27T06:06:49;17.30;99.90
3614;DHT22;1821;50.936;6.854;2022-08-27T06:07:31;18.00;99.90
3614;DHT22;1821;50.936;6.854;2022-08-27T06:08:13;18.10;99.90
3614;DHT22;1821;50.936;6.854;2022-08-27T06:08:55;18.10;99.90
3614;DHT22;1821;50.936;6.854;2022-08-27T06:09:37;18.10;99.90
3614;DHT22;1821;50.936;6.854;2022-08-27T06:10:19;18.20;99.90
3614;DHT22;1821;50.936;6.854;2022-08-27T06:11:03;18.10;99.90
3614;DHT22;1821;50.936;6.854;2022-08-27T06:11:46;18.10;99.90
3614;DHT22;1821;50.936;6.854;2022-08-27T06:12:28;18.10;99.90
3614;DHT22;1821;50.936;6.854;2022-08-27T06:13:10;18.00;99.90
3614;DHT22;1821;50.936;6.854;2022-08-27T06:13:52;18.20;99.90
3614;DHT22;1821;50.936;6.854;2022-08-27T06:14:35;18.00;99.90
3614;DHT22;1821;50.936;6.854;2022-08-27T06:15:17;18.10;99.90
3614;DHT22;1821;50.936;6.854;2022-08-27T06:16:07;18.10;99.90
3614;DHT22;1821;50.936;6.854;2022-08-27T06:16:50;18.10;99.90
3614;DHT22;1821;50.936;6.854;2022-08-27T06:17:32;18.10;99.90
3614;DHT22;1821;50.936;6.854;2022-08-27T06:18:16;18.40;99.90
3614;DHT22;1821;50.936;6.854;2022-08-27T06:18:58;18.20;99.90
3614;DHT22;1821;50.936;6.854;2022-08-27T06:19:40;17.60;99.90
3614;DHT22;1821;50.936;6.854;2022-08-27T06:20:22;17.90;99.90
3614;DHT22;1821;50.936;6.854;2022-08-27T06:21:05;17.70;99.90
3614;DHT22;1821;50.936;6.854;2022-08-27T06:21:47;18.00;99.90
3614;DHT22;1821;50.936;6.854;2022-08-27T06:22:49;17.90;99.90
3614;DHT22;1821;50.936;6.854;2022-08-27T06:23:31;17.90;99.90
3614;DHT22;1821;50.936;6.854;2022-08-27T06:24:13;17.80;99.90
3614;DHT22;1821;50.936;6.854;2022-08-27T06:24:55;17.80;99.90
3614;DHT22;1821;50.936;6.854;2022-08-27T06:25:39;17.80;99.90
3614;DHT22;1821;50.936;6.854;2022-08-27T06:26:23;17.70;99.90
3614;DHT22;1821;50.936;6.854;2022-08-27T06:27:05;17.80;99.90
3614;DHT22;1821;50.936;6.854;2022-08-27T06:27:48;18.00;99.90
3614;DHT22;1821;50.936;6.854;2022-08-27T06:28:30;17.90;99.90
3614;DHT22;1821;50.936;6.854;2022-08-27T06:29:12;17.80;99.90
3614;DHT22;1821;50.936;6.854;2022-08-27T06:29:55;17.80;99.90
3614;DHT22;1821;50.936;6.854;2022-08-27T06:30:36;17.80;99.90
3614;DHT22;1821;50.936;6.854;2022-08-27T06:31:26;17.80;99.90
3614;DHT22;1821;50.936;6.854;2022-08-27T06:32:09;17.80;99.90
3614;DHT22;1821;50.936;6.854;2022-08-27T06:32:50;17.80;99.90
3614;DHT22;1821;50.936;6.854;2022-08-27T06:33:32;17.80;99.90
3614;DHT22;1821;50.936;6.854;2022-08-27T06:34:14;17.90;99.90
3614;DHT22;1821;50.936;6.854;2022-08-27T06:34:56;17.90;99.90
3614;DHT22;1821;50.936;6.854;2022-08-27T06:35:38;17.90;99.90
3614;DHT22;1821;50.936;6.854;2022-08-27T06:36:22;17.90;99.90
3614;DHT22;1821;50.936;6.854;2022-08-27T06:37:06;18.00;99.90
3614;DHT22;1821;50.936;6.854;2022-08-27T06:37:48;17.80;99.90
3614;DHT22;1821;50.936;6.854;2022-08-27T06:38:32;18.00;99.90
3614;DHT22;1821;50.936;6.854;2022-08-27T06:39:14;18.00;99.90
3614;DHT22;1821;50.936;6.854;2022-08-27T06:39:58;18.00;99.90
3614;DHT22;1821;50.936;6.854;2022-08-27T06:40:41;18.00;99.90
3614;DHT22;1821;50.936;6.854;2022-08-27T06:41:24;18.00;99.90
3614;DHT22;1821;50.936;6.854;2022-08-27T06:42:10;17.90;99.90
3614;DHT22;1821;50.936;6.854;2022-08-27T06:42:52;17.80;99.90
3614;DHT22;1821;50.936;6.854;2022-08-27T06:43:36;17.70;99.90
3614;DHT22;1821;50.936;6.854;2022-08-27T06:44:18;17.70;99.90
3614;DHT22;1821;50.936;6.854;2022-08-27T06:45:00;17.70;99.90
3614;DHT22;1821;50.936;6.854;2022-08-27T06:45:43;17.70;99.90
3614;DHT22;1821;50.936;6.854;2022-08-27T06:47:10;17.50;99.90
3614;DHT22;1821;50.936;6.854;2022-08-27T06:47:52;17.60;99.90
3614;DHT22;1821;50.936;6.854;2022-08-27T06:49:18;17.80;99.90
3614;DHT22;1821;50.936;6.854;2022-08-27T06:50:00;17.70;99.90
3614;DHT22;1821;50.936;6.854;2022-08-27T06:51:28;17.80;99.90
3614;DHT22;1821;50.936;6.854;2022-08-27T06:52:52;17.90;99.90
3614;DHT22;1821;50.936;6.854;2022-08-27T06:53:35;17.70;99.90
3614;DHT22;1821;50.936;6.854;2022-08-27T06:54:17;17.90;99.90
3614;DHT22;1821;50.936;6.854;2022-08-27T06:55:44;17.70;99.90
3614;DHT22;1821;50.936;6.854;2022-08-27T06:59:17;17.70;99.90
3614;DHT22;1821;50.936;6.854;2022-08-27T06:59:59;17.80;99.90
3614;DHT22;1821;50.936;6.854;2022-08-27T07:01:32;17.80;99.90
3614;DHT22;1821;50.936;6.854;2022-08-27T07:02:57;18.00;99.90
3614;DHT22;1821;50.936;6.854;2022-08-27T07:03:39;17.80;99.90
3614;DHT22;1821;50.936;6.854;2022-08-27T07:04:23;18.00;99.90
3614;DHT22;1821;50.936;6.854;2022-08-27T07:05:13;17.90;99.90
3614;DHT22;1821;50.936;6.854;2022-08-27T07:06:44;17.80;99.90
3614;DHT22;1821;50.936;6.854;2022-08-27T07:07:26;17.90;99.90
3614;DHT22;1821;50.936;6.854;2022-08-27T07:08:18;17.70;99.90
3614;DHT22;1821;50.936;6.854;2022-08-27T07:09:00;17.60;99.90
3614;DHT22;1821;50.936;6.854;2022-08-27T07:09:42;17.70;99.90
3614;DHT22;1821;50.936;6.854;2022-08-27T07:10:24;17.60;99.90
3614;DHT22;1821;50.936;6.854;2022-08-27T07:13:55;17.60;99.90
3614;DHT22;1821;50.936;6.854;2022-08-27T07:14:37;17.70;99.90
3614;DHT22;1821;50.936;6.854;2022-08-27T08:43:42;17.90;99.90
3614;DHT22;1821;50.936;6.854;2022-08-27T08:44:46;17.90;99.90
3614;DHT22;1821;50.936;6.854;2022-08-27T08:45:31;17.90;99.90
3614;DHT22;1821;50.936;6.854;2022-08-27T08:46:52;17.70;99.90
3614;DHT22;1821;50.936;6.854;2022-08-27T08:47:31;17.70;99.90
3614;DHT22;1821;50.936;6.854;2022-08-27T08:48:19;17.90;99.90
3614;DHT22;1821;50.936;6.854;2022-08-27T08:50:42;17.90;99.90
3614;DHT22;1821;50.936;6.854;2022-08-27T08:51:29;18.00;99.90
3614;DHT22;1821;50.936;6.854;2022-08-27T08:52:20;18.10;99.90
3614;DHT22;1821;50.936;6.854;2022-08-27T08:54:08;18.10;99.90
3614;DHT22;1821;50.936;6.854;2022-08-27T08:54:52;17.80;99.90
3614;DHT22;1821;50.936;6.854;2022-08-27T08:55:59;18.20;99.90
3614;DHT22;1821;50.936;6.854;2022-08-27T08:57:50;17.90;99.90
3614;DHT22;1821;50.936;6.854;2022-08-27T08:58:48;17.90;99.90
3614;DHT22;1821;50.936;6.854;2022-08-27T08:59:32;18.10;99.90
3614;DHT22;1821;50.936;6.854;2022-08-27T09:00:15;17.90;99.90
3614;DHT22;1821;50.936;6.854;2022-08-27T09:01:00;18.00;99.90
3614;DHT22;1821;50.936;6.854;2022-08-27T09:01:42;17.80;99.90
3614;DHT22;1821;50.936;6.854;2022-08-27T09:02:26;18.20;99.90
3614;DHT22;1821;50.936;6.854;2022-08-27T09:03:11;18.00;99.90
3614;DHT22;1821;50.936;6.854;2022-08-27T09:04:00;17.90;99.90
3614;DHT22;1821;50.936;6.854;2022-08-27T09:04:43;17.90;99.90
3614;DHT22;1821;50.936;6.854;2022-08-27T09:05:25;17.80;99.90
3614;DHT22;1821;50.936;6.854;2022-08-27T09:06:17;17.80;99.90
3614;DHT22;1821;50.936;6.854;2022-08-27T09:07:05;17.90;99.90
3614;DHT22;1821;50.936;6.854;2022-08-27T09:10:30;17.90;99.90
3614;DHT22;1821;50.936;6.854;2022-08-27T09:12:10;18.00;99.90
3614;DHT22;1821;50.936;6.854;2022-08-27T09:12:58;18.00;99.90
3614;DHT22;1821;50.936;6.854;2022-08-27T09:13:50;17.90;99.90
3614;DHT22;1821;50.936;6.854;2022-08-27T09:14:54;17.90;99.90
3614;DHT22;1821;50.936;6.854;2022-08-27T09:15:37;17.90;99.90
3614;DHT22;1821;50.936;6.854;2022-08-27T09:16:19;17.90;99.90
3614;DHT22;1821;50.936;6.854;2022-08-27T09:17:01;18.00;99.90
3614;DHT22;1821;50.936;6.854;2022-08-27T09:17:51;18.00;99.90
3614;DHT22;1821;50.936;6.854;2022-08-27T09:18:37;18.10;99.90
3614;DHT22;1821;50.936;6.854;2022-08-27T09:19:21;18.00;99.90
3614;DHT22;1821;50.936;6.854;2022-08-27T09:20:06;18.00;99.90
3614;DHT22;1821;50.936;6.854;2022-08-27T09:21:19;18.20;99.90
3614;DHT22;1821;50.936;6.854;2022-08-27T09:23:09;18.10;99.90
3614;DHT22;1821;50.936;6.854;2022-08-27T09:25:46;18.10;99.90
3614;DHT22;1821;50.936;6.854;2022-08-27T09:26:30;18.20;99.90
3614;DHT22;1821;50.936;6.854;2022-08-27T09:27:13;18.30;99.90
3614;DHT22;1821;50.936;6.854;2022-08-27T09:28:00;18.00;99.90
3614;DHT22;1821;50.936;6.854;2022-08-27T09:28:42;18.20;99.90
3614;DHT22;1821;50.936;6.854;2022-08-27T09:29:48;18.00;99.90
3614;DHT22;1821;50.936;6.854;2022-08-27T09:30:39;18.10;99.90
3614;DHT22;1821;50.936;6.854;2022-08-27T09:31:22;18.10;99.90
3614;DHT22;1821;50.936;6.854;2022-08-27T09:32:06;18.40;99.90
3614;DHT22;1821;50.936;6.854;2022-08-27T09:32:54;18.70;99.90
3614;DHT22;1821;50.936;6.854;2022-08-27T09:33:37;18.20;99.90
3614;DHT22;1821;50.936;6.854;2022-08-27T09:34:40;18.40;99.90
3614;DHT22;1821;50.936;6.854;2022-08-27T09:35:25;18.20;99.90
3614;DHT22;1821;50.936;6.854;2022-08-27T09:36:10;18.30;99.90
3614;DHT22;1821;50.936;6.854;2022-08-27T09:37:46;18.30;99.90
3614;DHT22;1821;50.936;6.854;2022-08-27T09:38:31;18.30;99.90
3614;DHT22;1821;50.936;6.854;2022-08-27T09:39:14;18.20;99.90
3614;DHT22;1821;50.936;6.854;2022-08-27T09:41:06;18.30;99.90
3614;DHT22;1821;50.936;6.854;2022-08-27T09:41:48;18.30;99.90
3614;DHT22;1821;50.936;6.854;2022-08-27T09:42:37;18.20;99.90
3614;DHT22;1821;50.936;6.854;2022-08-27T09:43:24;18.50;99.90
3614;DHT22;1821;50.936;6.854;2022-08-27T09:44:10;18.30;99.90
3614;DHT22;1821;50.936;6.854;2022-08-27T09:44:53;18.30;99.90
3614;DHT22;1821;50.936;6.854;2022-08-27T09:45:35;18.50;99.90